time stringdate 2019-07-01 00:00:00 2019-07-31 23:45:00 | Room Air Temperature (C) float64 19.3 35 | Outdoor Air Temperature (C) float64 11 35 | Outdoor Humidity (%) float64 0.05 0.97 | Direct Solar Radiation (W/m^2) float64 0 923 | Wind Speed (m/s) float64 0 12.6 | Cooling Setpoint (C) float64 22.5 35 | Heating Setpoint (C) float64 10 22.5 | HVAC Power Consumption (W) float64 0 2.1k |
|---|---|---|---|---|---|---|---|---|
2019-07-02 01:00:00 | 25.776237 | 20.428489 | 0.402417 | 0 | 6.75218 | 30 | 15 | 0 |
2019-07-02 01:15:00 | 25.687798 | 20.096461 | 0.407417 | 0 | 6.824733 | 30 | 15 | 0 |
2019-07-02 01:30:00 | 25.602078 | 19.797392 | 0.412417 | 0 | 6.833554 | 30 | 15 | 0 |
2019-07-02 01:45:00 | 25.519251 | 19.52878 | 0.417417 | 0 | 6.765534 | 30 | 15 | 0 |
2019-07-02 02:00:00 | 25.440249 | 19.327916 | 0.417916 | 0 | 6.571431 | 30 | 15 | 0 |
2019-07-02 02:15:00 | 25.37408 | 19.313509 | 0.399739 | 0 | 6.15235 | 30 | 15 | 0 |
2019-07-02 02:30:00 | 25.324196 | 19.39742 | 0.371255 | 0 | 5.6411 | 30 | 15 | 0 |
2019-07-02 02:45:00 | 25.280617 | 19.435103 | 0.347089 | 0 | 5.228245 | 30 | 15 | 0 |
2019-07-02 03:00:00 | 25.228246 | 19.268417 | 0.341736 | 0 | 5.142893 | 30 | 15 | 0 |
2019-07-02 03:15:00 | 25.151742 | 18.820181 | 0.358901 | 0 | 5.552982 | 30 | 15 | 0 |
2019-07-02 03:30:00 | 25.052829 | 18.280469 | 0.383978 | 0 | 6.17307 | 30 | 15 | 0 |
2019-07-02 03:45:00 | 24.949517 | 17.887915 | 0.399718 | 0 | 6.625381 | 30 | 15 | 0 |
2019-07-02 04:00:00 | 24.865072 | 17.806449 | 0.392238 | 0 | 6.589585 | 30 | 15 | 0 |
2019-07-02 04:15:00 | 24.805088 | 17.875493 | 0.367718 | 0 | 6.144465 | 30 | 15 | 0 |
2019-07-02 04:30:00 | 24.760256 | 18.012737 | 0.338636 | 3.286715 | 5.578862 | 30 | 15 | 0 |
2019-07-02 04:45:00 | 24.729809 | 18.195573 | 0.316241 | 22.71671 | 5.175974 | 30 | 15 | 0 |
2019-07-02 05:00:00 | 24.718069 | 18.396404 | 0.307583 | 59.199002 | 5.125996 | 30 | 15 | 0 |
2019-07-02 05:15:00 | 24.724605 | 18.596708 | 0.302583 | 109.748896 | 5.224502 | 30 | 15 | 0 |
2019-07-02 05:30:00 | 24.74651 | 18.838743 | 0.297583 | 178.129855 | 5.381383 | 30 | 15 | 0 |
2019-07-02 05:45:00 | 24.789476 | 19.177032 | 0.292583 | 281.21143 | 5.583369 | 30 | 15 | 0 |
2019-07-02 06:00:00 | 24.862233 | 19.658342 | 0.287583 | 399.511987 | 5.874094 | 30 | 15 | 0 |
2019-07-02 06:15:00 | 24.969556 | 20.275742 | 0.282583 | 503.794131 | 6.391006 | 30 | 15 | 0 |
2019-07-02 06:30:00 | 25.111959 | 20.99427 | 0.277583 | 574.407171 | 6.934841 | 30 | 15 | 0 |
2019-07-02 06:45:00 | 25.284453 | 21.779772 | 0.272583 | 631.661479 | 7.219576 | 30 | 15 | 0 |
2019-07-02 07:00:00 | 25.482599 | 22.599287 | 0.265492 | 682.786798 | 7.042972 | 30 | 15 | 0 |
2019-07-02 07:15:00 | 25.703911 | 23.434763 | 0.249588 | 726.899174 | 6.593128 | 30 | 15 | 0 |
2019-07-02 07:30:00 | 25.951571 | 24.284525 | 0.228393 | 764.717739 | 6.018045 | 30 | 15 | 0 |
2019-07-02 07:45:00 | 26.234548 | 25.148573 | 0.208299 | 801.008032 | 5.40587 | 30 | 15 | 0 |
2019-07-02 08:00:00 | 24.570188 | 26.040973 | 0.194876 | 833.585714 | 4.808154 | 24 | 21 | 488.615468 |
2019-07-02 08:15:00 | 24.006938 | 27.000771 | 0.187648 | 858.200051 | 4.155431 | 24 | 21 | 431.044209 |
2019-07-02 08:30:00 | 24.020685 | 27.986991 | 0.182534 | 872.673591 | 3.48518 | 24 | 21 | 466.297815 |
2019-07-02 08:45:00 | 24.021634 | 28.937692 | 0.175443 | 882.930071 | 2.874352 | 24 | 21 | 500.611095 |
2019-07-02 09:00:00 | 24.022206 | 29.787249 | 0.161518 | 891.086726 | 2.561752 | 24 | 21 | 537.439582 |
2019-07-02 09:15:00 | 24.022242 | 30.486526 | 0.137542 | 897.360404 | 3.081385 | 24 | 21 | 576.033905 |
2019-07-02 09:30:00 | 24.021215 | 31.048944 | 0.110069 | 902.198886 | 4.060739 | 24 | 21 | 614.768572 |
2019-07-02 09:45:00 | 24.019466 | 31.499616 | 0.087599 | 906.536601 | 4.888147 | 24 | 21 | 651.759753 |
2019-07-02 10:00:00 | 24.017971 | 31.868859 | 0.075815 | 910.1329 | 5.101681 | 24 | 21 | 686.762326 |
2019-07-02 10:15:00 | 24.016866 | 32.19306 | 0.068591 | 912.423552 | 4.970429 | 24 | 21 | 720.234758 |
2019-07-02 10:30:00 | 24.016025 | 32.473269 | 0.063555 | 912.539498 | 4.752246 | 24 | 21 | 752.78535 |
2019-07-02 10:45:00 | 24.01501 | 32.701924 | 0.060706 | 909.343137 | 4.607023 | 24 | 21 | 784.116447 |
2019-07-02 11:00:00 | 24.013875 | 32.883471 | 0.059869 | 903.923367 | 4.710251 | 24 | 21 | 813.75726 |
2019-07-02 11:15:00 | 24.012708 | 33.053475 | 0.060074 | 897.896854 | 5.147892 | 24 | 21 | 841.630426 |
2019-07-02 11:30:00 | 24.010328 | 33.19687 | 0.060487 | 891.827118 | 5.705349 | 24 | 21 | 865.368531 |
2019-07-02 11:45:00 | 24.009327 | 33.283325 | 0.060404 | 882.476536 | 6.113206 | 24 | 21 | 886.569814 |
2019-07-02 12:00:00 | 24.007757 | 33.3 | 0.058893 | 869.108256 | 6.035553 | 24 | 21 | 904.821881 |
2019-07-02 12:15:00 | 24.006423 | 33.3 | 0.055284 | 852.035265 | 5.206798 | 24 | 21 | 920.049882 |
2019-07-02 12:30:00 | 24.005194 | 33.3 | 0.051401 | 813.365703 | 4.079964 | 24 | 21 | 932.554061 |
2019-07-02 12:45:00 | 24.004839 | 33.3 | 0.049589 | 697.936367 | 3.257907 | 24 | 21 | 943.741364 |
2019-07-02 13:00:00 | 24.00348 | 33.3 | 0.051208 | 545.191476 | 3.142053 | 24 | 21 | 952.740527 |
2019-07-02 13:15:00 | 24.002208 | 33.3 | 0.053708 | 420.378469 | 3.292283 | 24 | 21 | 958.598344 |
2019-07-02 13:30:00 | 24.001217 | 33.3 | 0.056208 | 368.769133 | 3.539903 | 24 | 21 | 962.042533 |
2019-07-02 13:45:00 | 24.00053 | 33.3 | 0.058708 | 350.294749 | 3.886192 | 24 | 21 | 963.666329 |
2019-07-02 14:00:00 | 24.000175 | 33.32813 | 0.061208 | 348.394518 | 4.333591 | 24 | 21 | 964.195211 |
2019-07-02 14:15:00 | 24.000907 | 33.472074 | 0.063708 | 362.85554 | 4.86703 | 24 | 21 | 965.803234 |
2019-07-02 14:30:00 | 23.999621 | 33.676872 | 0.066208 | 393.062439 | 5.429457 | 24 | 21 | 966.250706 |
2019-07-02 14:45:00 | 23.997858 | 33.848223 | 0.068708 | 434.594878 | 5.956819 | 24 | 21 | 962.622764 |
2019-07-02 15:00:00 | 23.995699 | 33.839824 | 0.073391 | 479.738065 | 6.380759 | 24 | 21 | 954.598303 |
2019-07-02 15:15:00 | 23.992964 | 33.456283 | 0.087187 | 520.545136 | 6.6465 | 24 | 21 | 940.45813 |
2019-07-02 15:30:00 | 23.992023 | 32.87613 | 0.106196 | 551.563948 | 6.762073 | 24 | 21 | 922.82734 |
2019-07-02 15:45:00 | 23.992469 | 32.36705 | 0.123497 | 575.463967 | 6.747635 | 24 | 21 | 905.505261 |
2019-07-02 16:00:00 | 23.994892 | 32.227871 | 0.130198 | 587.395966 | 6.503376 | 24 | 21 | 892.095283 |
2019-07-02 16:15:00 | 23.99817 | 32.61795 | 0.11836 | 579.786205 | 5.696052 | 24 | 21 | 886.092186 |
2019-07-02 16:30:00 | 23.999096 | 33.167598 | 0.099321 | 543.319505 | 4.637873 | 24 | 21 | 883.996865 |
2019-07-02 16:45:00 | 23.997705 | 33.408273 | 0.088555 | 473.124516 | 3.814366 | 24 | 21 | 880.274398 |
2019-07-02 17:00:00 | 23.994569 | 33.016872 | 0.099681 | 387.850938 | 3.578433 | 24 | 21 | 870.611873 |
2019-07-02 17:15:00 | 23.9928 | 32.307423 | 0.13086 | 310.772987 | 3.68057 | 24 | 21 | 856.159063 |
2019-07-02 17:30:00 | 23.990948 | 31.451344 | 0.16887 | 257.543204 | 3.962636 | 24 | 21 | 838.123678 |
2019-07-02 17:45:00 | 23.98943 | 30.505274 | 0.199984 | 212.159072 | 4.365385 | 24 | 21 | 816.754715 |
2019-07-02 18:00:00 | 26.663013 | 29.476057 | 0.215115 | 169.225315 | 4.890443 | 30 | 15 | 26.873161 |
2019-07-02 18:15:00 | 28.502179 | 28.266131 | 0.224877 | 129.828214 | 5.679828 | 30 | 15 | 0 |
2019-07-02 18:30:00 | 28.851756 | 27.032324 | 0.23422 | 93.408316 | 6.587713 | 30 | 15 | 0 |
2019-07-02 18:45:00 | 28.86157 | 26.00139 | 0.244265 | 56.301489 | 7.386237 | 30 | 15 | 0 |
2019-07-02 19:00:00 | 28.746781 | 25.343893 | 0.255834 | 23.874445 | 7.722402 | 30 | 15 | 0 |
2019-07-02 19:15:00 | 28.614745 | 24.948902 | 0.268283 | 3.89779 | 7.137027 | 30 | 15 | 0 |
2019-07-02 19:30:00 | 28.504109 | 24.696739 | 0.281013 | 0 | 6.092276 | 30 | 15 | 0 |
2019-07-02 19:45:00 | 28.417479 | 24.502556 | 0.293628 | 0 | 5.268061 | 30 | 15 | 0 |
2019-07-02 20:00:00 | 28.346849 | 24.318587 | 0.304467 | 0 | 5.431713 | 30 | 15 | 0 |
2019-07-02 20:15:00 | 28.290041 | 24.214445 | 0.309509 | 0 | 7.009085 | 30 | 15 | 0 |
2019-07-02 20:30:00 | 28.244855 | 24.141941 | 0.31171 | 0 | 9.03134 | 30 | 15 | 0 |
2019-07-02 20:45:00 | 28.204128 | 24.011486 | 0.315879 | 0 | 10.265621 | 30 | 15 | 0 |
2019-07-02 21:00:00 | 28.152907 | 23.620359 | 0.33378 | 0 | 9.839277 | 30 | 15 | 0 |
2019-07-02 21:15:00 | 28.049653 | 22.605326 | 0.387919 | 0 | 8.555514 | 30 | 15 | 0 |
2019-07-02 21:30:00 | 27.88251 | 21.31957 | 0.458345 | 0 | 7.041074 | 30 | 15 | 0 |
2019-07-02 21:45:00 | 27.697906 | 20.295772 | 0.514312 | 0 | 5.664773 | 30 | 15 | 0 |
2019-07-02 22:00:00 | 27.552719 | 19.898424 | 0.532862 | 0 | 4.656866 | 30 | 15 | 0 |
2019-07-02 22:15:00 | 27.454527 | 19.753706 | 0.529623 | 0 | 3.7299 | 30 | 15 | 0 |
2019-07-02 22:30:00 | 27.374827 | 19.649972 | 0.520646 | 0 | 2.893654 | 30 | 15 | 0 |
2019-07-02 22:45:00 | 27.298842 | 19.507898 | 0.517036 | 0 | 2.291295 | 30 | 15 | 0 |
2019-07-02 23:00:00 | 27.218047 | 19.270382 | 0.526637 | 0 | 2.024564 | 30 | 15 | 0 |
2019-07-02 23:15:00 | 27.130514 | 18.985833 | 0.542323 | 0 | 2.001649 | 30 | 15 | 0 |
2019-07-02 23:30:00 | 27.040153 | 18.695563 | 0.558941 | 0 | 2.149568 | 30 | 15 | 0 |
2019-07-02 23:45:00 | 26.950069 | 18.425533 | 0.573731 | 0 | 2.424786 | 30 | 15 | 0 |
2019-07-03 00:00:00 | 26.861635 | 18.199575 | 0.584744 | 0 | 2.8196 | 30 | 15 | 0 |
2019-07-03 00:15:00 | 26.774942 | 18.025486 | 0.5932 | 0 | 3.393019 | 30 | 15 | 0 |
2019-07-03 00:30:00 | 26.691294 | 17.901046 | 0.598839 | 0 | 4.005857 | 30 | 15 | 0 |
2019-07-03 00:45:00 | 26.612809 | 17.82391 | 0.600661 | 0 | 4.46635 | 30 | 15 | 0 |
2019-07-03 01:00:00 | 26.541632 | 17.815445 | 0.595855 | 0 | 4.646378 | 30 | 15 | 0 |
2019-07-03 01:15:00 | 26.484622 | 17.939524 | 0.579418 | 0 | 4.692049 | 30 | 15 | 0 |
2019-07-03 01:30:00 | 26.441704 | 18.125907 | 0.558501 | 0 | 4.67882 | 30 | 15 | 0 |
2019-07-03 01:45:00 | 26.404182 | 18.269127 | 0.543226 | 0 | 4.630703 | 30 | 15 | 0 |
Subsets and Splits
No community queries yet
The top public SQL queries from the community will appear here once available.